Time;durP1;ratioP1;P1;durP2;ratioP2;P2;SDS_P1;SDS_P2;PMS_P1;PMS_P2;Temp;Humidity;BMP_temperature;BMP_pressure;BME280_temperature;BME280_humidity;BME280_pressure;Samples;Min_cycle;Max_cycle;Signal;HPM_P1;HPM_P2
2020/12/19 00:00:42;;;;;;;24.30;12.52;;;3.80;99.90;;;;;;5010987;28;20056;-66
2020/12/19 00:03:08;;;;;;;23.17;12.20;;;3.80;99.90;;;;;;5028266;28;20061;-64
2020/12/19 00:05:34;;;;;;;25.75;12.82;;;3.80;99.90;;;;;;5010608;28;20026;-62
2020/12/19 00:08:00;;;;;;;26.95;13.45;;;3.80;99.90;;;;;;5028305;28;20031;-64
2020/12/19 00:10:26;;;;;;;25.92;13.02;;;3.80;99.90;;;;;;5028243;28;20469;-64
2020/12/19 00:12:51;;;;;;;26.05;13.20;;;3.70;99.90;;;;;;5010221;28;20091;-64
2020/12/19 00:15:18;;;;;;;24.05;12.07;;;3.80;99.90;;;;;;5028571;28;20033;-66
2020/12/19 00:17:44;;;;;;;27.50;14.07;;;3.70;99.90;;;;;;5028010;28;20030;-68
2020/12/19 00:20:10;;;;;;;25.15;13.50;;;3.80;99.90;;;;;;5010308;28;20022;-64
2020/12/19 00:22:36;;;;;;;25.70;14.77;;;3.70;99.90;;;;;;5028032;28;20426;-63
2020/12/19 00:25:04;;;;;;;28.83;14.18;;;3.70;99.90;;;;;;5027902;28;20030;-65
2020/12/19 00:27:30;;;;;;;26.27;14.60;;;3.70;99.90;;;;;;5015347;28;20022;-67
2020/12/19 00:29:55;;;;;;;29.40;16.58;;;3.70;99.90;;;;;;4991526;28;20018;-68
2020/12/19 00:32:21;;;;;;;28.25;16.92;;;3.70;99.90;;;;;;5011249;28;20080;-67
2020/12/19 00:34:47;;;;;;;26.02;15.40;;;3.70;99.90;;;;;;5011263;28;20066;-67
2020/12/19 00:37:13;;;;;;;27.50;16.13;;;3.60;99.90;;;;;;5011436;28;20062;-67
2020/12/19 00:39:38;;;;;;;31.48;15.95;;;3.60;99.90;;;;;;5010868;28;20029;-67
2020/12/19 00:42:04;;;;;;;25.27;14.45;;;3.60;99.90;;;;;;5011912;28;20032;-67
2020/12/19 00:44:30;;;;;;;28.00;14.23;;;3.60;99.90;;;;;;5031049;28;20087;-66
2020/12/19 00:46:56;;;;;;;29.55;14.90;;;3.60;99.90;;;;;;5013262;28;20029;-67
2020/12/19 00:49:21;;;;;;;27.42;14.13;;;3.70;99.90;;;;;;5030657;28;20033;-67
2020/12/19 00:51:47;;;;;;;26.88;13.57;;;3.60;99.90;;;;;;5013182;28;20026;-67
2020/12/19 00:54:12;;;;;;;26.48;13.27;;;3.60;99.90;;;;;;5013053;28;20187;-68
2020/12/19 00:56:38;;;;;;;27.13;13.80;;;3.60;99.90;;;;;;5013094;28;20018;-67
2020/12/19 00:59:05;;;;;;;27.10;13.80;;;3.60;99.90;;;;;;5030699;28;20017;-67
2020/12/19 01:01:30;;;;;;;25.95;14.45;;;3.60;99.90;;;;;;5013315;28;20013;-67
2020/12/19 01:03:59;;;;;;;27.60;15.05;;;3.60;99.90;;;;;;5031148;28;20041;-67
2020/12/19 01:06:26;;;;;;;30.25;14.52;;;3.70;99.90;;;;;;5030679;28;20017;-67
2020/12/19 01:08:54;;;;;;;25.52;12.93;;;3.70;99.90;;;;;;5064053;22;20055;-60
2020/12/19 01:11:22;;;;;;;24.08;13.48;;;3.70;99.90;;;;;;5049316;28;20485;-60
2020/12/19 01:13:49;;;;;;;27.15;15.32;;;3.60;99.90;;;;;;5053772;28;20054;-62
2020/12/19 01:16:19;;;;;;;29.42;17.52;;;3.60;99.90;;;;;;5050134;28;20043;-62
2020/12/19 01:18:47;;;;;;;30.98;17.15;;;3.60;99.90;;;;;;5049449;28;20021;-60
2020/12/19 01:21:25;;;;;;;29.65;17.52;;;3.60;99.90;;;;;;5055958;28;20021;-61
2020/12/19 01:23:51;;;;;;;32.17;16.05;;;3.50;99.90;;;;;;5071471;28;20056;-61
2020/12/19 01:26:17;;;;;;;28.65;15.68;;;3.50;99.90;;;;;;5070046;28;20043;-61
2020/12/19 01:28:44;;;;;;;32.20;16.33;;;3.50;99.90;;;;;;5069887;28;20028;-62
2020/12/19 01:31:11;;;;;;;33.58;15.65;;;3.60;99.90;;;;;;5060750;28;20021;-61
2020/12/19 01:33:38;;;;;;;36.03;18.13;;;3.60;99.90;;;;;;5051544;28;20083;-62
2020/12/19 01:36:07;;;;;;;29.38;15.23;;;3.70;99.90;;;;;;5050135;28;20029;-60
2020/12/19 01:38:35;;;;;;;33.22;15.68;;;3.70;99.90;;;;;;5049277;28;20028;-60
2020/12/19 01:41:02;;;;;;;29.52;15.18;;;3.60;99.90;;;;;;5049584;28;20120;-58
2020/12/19 01:43:42;;;;;;;30.53;15.87;;;3.60;99.90;;;;;;5060104;28;20063;-61
2020/12/19 01:46:08;;;;;;;27.30;14.77;;;3.60;99.90;;;;;;5069968;28;20372;-61
2020/12/19 01:48:35;;;;;;;30.52;15.77;;;3.50;99.90;;;;;;5070348;28;20090;-60
2020/12/19 01:51:01;;;;;;;30.13;15.18;;;3.40;99.90;;;;;;5053794;28;20029;-60
2020/12/19 01:53:30;;;;;;;27.77;13.95;;;3.40;99.90;;;;;;5054836;28;20059;-64
2020/12/19 01:55:57;;;;;;;33.10;14.80;;;3.40;99.90;;;;;;5037484;28;20067;-59
2020/12/19 01:58:24;;;;;;;29.38;13.90;;;3.40;99.90;;;;;;5054385;28;20021;-62
2020/12/19 02:00:50;;;;;;;32.20;15.00;;;3.40;99.90;;;;;;5071652;28;20024;-62
2020/12/19 02:03:15;;;;;;;30.67;15.75;;;3.50;99.90;;;;;;5073464;28;20046;-60
2020/12/19 02:05:43;;;;;;;33.67;14.80;;;3.50;99.90;;;;;;5073515;28;20081;-62
2020/12/19 02:08:10;;;;;;;31.00;15.68;;;3.50;99.90;;;;;;5057094;28;20049;-59
2020/12/19 02:10:36;;;;;;;31.88;15.40;;;3.60;99.90;;;;;;5053018;28;20033;-60
2020/12/19 02:13:03;;;;;;;32.63;16.88;;;3.60;99.90;;;;;;5056706;28;20041;-62
2020/12/19 02:15:41;;;;;;;32.13;15.40;;;3.60;99.90;;;;;;5073242;28;20067;-62
2020/12/19 02:18:08;;;;;;;28.67;15.55;;;3.60;99.90;;;;;;5059908;28;20024;-60
2020/12/19 02:20:34;;;;;;;33.53;16.30;;;3.50;99.90;;;;;;5052951;28;20111;-60
2020/12/19 02:23:02;;;;;;;30.35;15.93;;;3.50;99.90;;;;;;5053597;28;20033;-63
2020/12/19 02:25:37;;;;;;;33.80;17.17;;;3.50;99.90;;;;;;5062805;28;20028;-61
2020/12/19 02:28:05;;;;;;;31.60;16.15;;;3.50;99.90;;;;;;5072670;28;20119;-61
2020/12/19 02:30:37;;;;;;;31.65;16.15;;;3.60;99.90;;;;;;5061519;28;20068;-62
2020/12/19 02:33:03;;;;;;;30.65;15.02;;;3.60;99.90;;;;;;5053362;28;20499;-63
2020/12/19 02:35:29;;;;;;;29.02;15.32;;;3.50;99.90;;;;;;5055038;28;20024;-59
2020/12/19 02:37:54;;;;;;;32.85;15.18;;;3.50;99.90;;;;;;5053217;28;20017;-60
2020/12/19 02:40:21;;;;;;;31.60;15.73;;;3.50;99.90;;;;;;5053159;28;20021;-60
2020/12/19 02:42:46;;;;;;;30.17;15.13;;;3.40;99.90;;;;;;5053364;28;20468;-56
2020/12/19 02:45:12;;;;;;;29.27;15.32;;;3.40;99.90;;;;;;5071400;28;20031;-59
2020/12/19 02:47:38;;;;;;;31.17;15.20;;;3.40;99.90;;;;;;5073299;28;20024;-54
2020/12/19 02:50:05;;;;;;;28.83;15.20;;;3.50;99.90;;;;;;5073834;28;20025;-57
2020/12/19 02:52:32;;;;;;;32.80;16.40;;;3.40;99.90;;;;;;5074101;28;20032;-61
2020/12/19 02:54:58;;;;;;;30.23;15.18;;;3.40;99.90;;;;;;5072727;28;20020;-61
2020/12/19 02:57:24;;;;;;;32.35;15.40;;;3.30;99.90;;;;;;5074103;28;20529;-62
2020/12/19 02:59:50;;;;;;;32.50;15.55;;;3.30;99.90;;;;;;5070616;28;20363;-61
2020/12/19 03:02:15;;;;;;;29.45;15.25;;;3.30;99.90;;;;;;5059025;28;20021;-61
2020/12/19 03:04:41;;;;;;;31.38;15.35;;;3.30;99.90;;;;;;5057591;28;20025;-61
2020/12/19 03:07:07;;;;;;;31.80;14.80;;;3.30;99.90;;;;;;5053899;28;20031;-61
2020/12/19 03:09:33;;;;;;;34.25;15.40;;;3.20;99.90;;;;;;5056442;28;20671;-60
2020/12/19 03:11:59;;;;;;;31.20;16.55;;;3.20;99.90;;;;;;5072438;28;20115;-61
2020/12/19 03:14:24;;;;;;;29.15;15.70;;;3.30;99.90;;;;;;5073632;28;20154;-60
2020/12/19 03:16:50;;;;;;;31.48;15.90;;;3.30;99.90;;;;;;5074358;28;20021;-63
2020/12/19 03:19:16;;;;;;;31.48;15.73;;;3.40;99.90;;;;;;5072969;28;20113;-63
2020/12/19 03:21:42;;;;;;;34.47;17.45;;;3.40;99.90;;;;;;5073749;28;20027;-63
2020/12/19 03:24:07;;;;;;;33.95;16.63;;;3.60;99.90;;;;;;5072416;28;20464;-61
2020/12/19 03:26:33;;;;;;;33.30;16.10;;;3.50;99.90;;;;;;5073562;28;20047;-62
2020/12/19 03:28:59;;;;;;;32.85;16.58;;;3.50;99.90;;;;;;5071633;28;20056;-60
2020/12/19 03:31:25;;;;;;;31.83;16.33;;;3.60;99.90;;;;;;5061525;28;20028;-62
2020/12/19 03:33:51;;;;;;;31.42;16.33;;;3.50;99.90;;;;;;5058499;28;20418;-60
2020/12/19 03:36:16;;;;;;;32.72;17.42;;;3.40;99.90;;;;;;5073243;28;20062;-62
2020/12/19 03:38:42;;;;;;;32.30;15.95;;;3.30;99.90;;;;;;5067853;28;20351;-62
2020/12/19 03:41:08;;;;;;;29.95;15.07;;;3.30;99.90;;;;;;5051801;28;20021;-62
2020/12/19 03:43:34;;;;;;;32.15;16.13;;;3.30;99.90;;;;;;5056689;28;20052;-62
2020/12/19 03:46:00;;;;;;;31.95;16.15;;;3.20;99.90;;;;;;5071711;28;20047;-60
2020/12/19 03:48:25;;;;;;;33.63;16.15;;;3.10;99.90;;;;;;5072665;28;20020;-58
2020/12/19 03:50:51;;;;;;;29.88;14.70;;;3.10;99.90;;;;;;5070607;28;20039;-61
2020/12/19 03:53:17;;;;;;;30.52;15.88;;;3.10;99.90;;;;;;5053007;28;20049;-57
2020/12/19 03:55:43;;;;;;;36.08;14.55;;;3.00;99.90;;;;;;5051528;28;20475;-61
2020/12/19 03:58:08;;;;;;;29.98;15.73;;;3.00;99.90;;;;;;5052429;28;20355;-64
2020/12/19 04:00:34;;;;;;;29.48;15.05;;;3.00;99.90;;;;;;5049500;28;20044;-63
2020/12/19 04:03:00;;;;;;;29.45;14.77;;;3.00;99.90;;;;;;5064023;28;20013;-61
2020/12/19 04:05:25;;;;;;;34.55;16.13;;;3.00;99.90;;;;;;5062468;28;20064;-61
2020/12/19 04:07:51;;;;;;;32.45;14.73;;;3.00;99.90;;;;;;5072365;28;20035;-62
2020/12/19 04:10:17;;;;;;;31.08;14.70;;;3.00;99.90;;;;;;5071924;28;20027;-62
2020/12/19 04:12:42;;;;;;;34.85;15.82;;;3.00;99.90;;;;;;5072557;28;20027;-61
2020/12/19 04:15:09;;;;;;;26.65;14.52;;;3.00;99.90;;;;;;5070502;28;20049;-63
2020/12/19 04:17:36;;;;;;;29.88;14.82;;;3.00;99.90;;;;;;5071171;28;20086;-60
2020/12/19 04:20:04;;;;;;;28.55;14.70;;;3.00;99.90;;;;;;5071051;28;20473;-61
2020/12/19 04:22:29;;;;;;;33.88;15.50;;;3.00;99.90;;;;;;5071308;28;20375;-63
2020/12/19 04:24:55;;;;;;;31.35;16.92;;;3.00;99.90;;;;;;5071201;28;20024;-62
2020/12/19 04:27:21;;;;;;;32.47;16.13;;;3.00;99.90;;;;;;5071227;28;20013;-61
2020/12/19 04:29:46;;;;;;;34.65;15.20;;;3.00;99.90;;;;;;5071102;28;20487;-54
2020/12/19 04:32:12;;;;;;;31.02;14.85;;;3.00;99.90;;;;;;5057059;28;20368;-60
2020/12/19 04:34:37;;;;;;;33.35;15.55;;;2.90;99.90;;;;;;5067484;28;20522;-61
2020/12/19 04:37:03;;;;;;;30.58;15.60;;;2.90;99.90;;;;;;5055490;28;20021;-61
2020/12/19 04:39:29;;;;;;;30.20;15.23;;;2.90;99.90;;;;;;5050227;28;20017;-61
2020/12/19 04:41:54;;;;;;;32.78;15.95;;;2.90;99.90;;;;;;5055213;28;20032;-62
2020/12/19 04:44:20;;;;;;;30.63;14.77;;;2.90;99.90;;;;;;5063222;28;20536;-63
2020/12/19 04:46:47;;;;;;;28.95;15.35;;;2.90;99.90;;;;;;5064199;28;20047;-64
2020/12/19 04:49:12;;;;;;;30.02;16.05;;;2.90;99.90;;;;;;5071566;28;20375;-64
2020/12/19 04:51:39;;;;;;;33.10;15.38;;;2.90;99.90;;;;;;5070711;28;20020;-64
2020/12/19 04:54:06;;;;;;;35.55;16.23;;;2.90;99.90;;;;;;5071816;28;20067;-61
2020/12/19 04:56:32;;;;;;;32.58;16.90;;;3.00;99.90;;;;;;5051146;28;20036;-63
2020/12/19 04:59:02;;;;;;;31.58;16.63;;;3.00;99.90;;;;;;5057813;28;20016;-59
2020/12/19 05:01:28;;;;;;;31.95;16.02;;;3.00;99.90;;;;;;5071214;28;20016;-61
2020/12/19 05:03:54;;;;;;;38.13;18.25;;;3.10;99.90;;;;;;5056677;28;20090;-61
2020/12/19 05:06:27;;;;;;;33.90;18.25;;;3.10;99.90;;;;;;5067906;28;20027;-62
2020/12/19 05:08:54;;;;;;;35.72;16.98;;;3.10;99.90;;;;;;5055346;28;20032;-60
2020/12/19 05:11:21;;;;;;;32.22;16.83;;;3.10;99.90;;;;;;5071887;28;20100;-62
2020/12/19 05:13:47;;;;;;;32.78;16.77;;;3.00;99.90;;;;;;5062386;28;20024;-63
2020/12/19 05:16:15;;;;;;;38.15;17.73;;;3.00;99.90;;;;;;5059906;28;20025;-63
2020/12/19 05:18:42;;;;;;;36.08;18.52;;;3.00;99.90;;;;;;5055060;28;20452;-62
2020/12/19 05:21:08;;;;;;;34.05;17.77;;;3.10;99.90;;;;;;5070403;28;20020;-61
2020/12/19 05:23:39;;;;;;;34.45;16.80;;;3.20;99.90;;;;;;5070482;28;20017;-59
2020/12/19 05:26:06;;;;;;;34.10;18.10;;;3.10;99.90;;;;;;5073055;28;20023;-62
2020/12/19 05:28:39;;;;;;;31.00;16.17;;;3.00;99.90;;;;;;5057185;28;20375;-61
2020/12/19 05:31:05;;;;;;;34.35;17.80;;;3.00;99.90;;;;;;5054411;28;20055;-62
2020/12/19 05:33:38;;;;;;;35.65;17.05;;;3.00;99.90;;;;;;5053785;28;20507;-63
2020/12/19 05:36:06;;;;;;;34.65;17.30;;;3.00;99.90;;;;;;5063051;28;20065;-63
2020/12/19 05:38:38;;;;;;;33.63;17.40;;;3.00;99.90;;;;;;5054980;28;20025;-64
2020/12/19 05:41:05;;;;;;;38.00;17.75;;;3.00;99.90;;;;;;5071153;28;20021;-62
2020/12/19 05:43:31;;;;;;;37.45;20.10;;;3.00;99.90;;;;;;5074250;28;20032;-63
2020/12/19 05:45:57;;;;;;;37.90;20.52;;;3.10;99.90;;;;;;5074473;28;20380;-64
2020/12/19 05:48:23;;;;;;;38.95;22.20;;;3.10;99.90;;;;;;5073589;28;20028;-63
2020/12/19 05:50:49;;;;;;;40.35;22.70;;;3.10;99.90;;;;;;5075473;28;20313;-58
2020/12/19 05:53:15;;;;;;;39.00;22.27;;;3.10;99.90;;;;;;5075405;28;20221;-62
2020/12/19 05:55:41;;;;;;;41.45;22.05;;;3.10;99.90;;;;;;5073973;28;20107;-58
2020/12/19 05:58:08;;;;;;;39.20;21.38;;;3.00;99.90;;;;;;5073965;28;20024;-60
2020/12/19 06:00:34;;;;;;;41.05;21.23;;;3.00;99.90;;;;;;5073366;28;20074;-63
2020/12/19 06:03:05;;;;;;;35.70;20.38;;;3.00;99.90;;;;;;5067662;28;20029;-61
2020/12/19 06:05:32;;;;;;;39.10;21.00;;;3.00;99.90;;;;;;5060737;28;20078;-62
2020/12/19 06:07:59;;;;;;;40.58;21.63;;;2.90;99.90;;;;;;5071875;28;20044;-60
2020/12/19 06:10:26;;;;;;;39.92;21.85;;;2.90;99.90;;;;;;5074615;28;20403;-62
2020/12/19 06:13:02;;;;;;;40.42;22.80;;;2.80;99.90;;;;;;5075349;28;20024;-62
2020/12/19 06:15:50;;;;;;;37.40;20.52;;;2.90;99.90;;;;;;5067175;28;20027;-55
2020/12/19 06:18:39;;;;;;;39.67;20.30;;;2.80;99.90;;;;;;5073256;28;20438;-64
2020/12/19 06:21:08;;;;;;;37.50;20.23;;;2.80;99.90;;;;;;5052566;28;20571;-59
2020/12/19 06:23:38;;;;;;;37.97;19.20;;;2.70;99.90;;;;;;5074436;28;20115;-63
2020/12/19 06:26:05;;;;;;;37.08;17.60;;;2.70;99.90;;;;;;5074766;28;20034;-54
2020/12/19 06:28:40;;;;;;;35.33;18.08;;;2.60;99.90;;;;;;5073596;28;20029;-56
2020/12/19 06:31:12;;;;;;;37.55;20.67;;;2.60;99.90;;;;;;5054165;28;20028;-63
2020/12/19 06:33:46;;;;;;;35.78;19.05;;;2.60;99.90;;;;;;5072711;28;20028;-64
2020/12/19 06:36:21;;;;;;;35.63;18.42;;;2.60;99.90;;;;;;5056637;28;20493;-62
2020/12/19 06:38:50;;;;;;;34.15;18.23;;;2.60;99.90;;;;;;5067532;28;20060;-62
2020/12/19 06:41:45;;;;;;;35.85;19.23;;;2.50;99.90;;;;;;5072356;28;20438;-63
2020/12/19 06:44:24;;;;;;;37.35;18.40;;;2.60;99.90;;;;;;5055432;28;20035;-62
2020/12/19 06:46:51;;;;;;;37.67;18.90;;;2.60;99.90;;;;;;5034251;28;20065;-62
2020/12/19 06:49:26;;;;;;;37.20;19.55;;;2.50;99.90;;;;;;5032118;28;20026;-58
2020/12/19 06:51:59;;;;;;;32.70;18.42;;;2.50;99.90;;;;;;5032984;28;20025;-58
2020/12/19 06:54:27;;;;;;;37.30;19.35;;;2.50;99.90;;;;;;5038636;28;20032;-59
2020/12/19 06:56:53;;;;;;;39.95;19.13;;;2.50;99.90;;;;;;5072811;28;20021;-62
2020/12/19 06:59:22;;;;;;;40.30;20.23;;;2.50;99.90;;;;;;5072392;28;20028;-61
2020/12/19 07:01:48;;;;;;;41.20;19.13;;;2.50;99.90;;;;;;5070551;28;20484;-61
2020/12/19 07:04:35;;;;;;;41.50;21.48;;;2.60;99.90;;;;;;5052771;28;20167;-63
2020/12/19 07:07:06;;;;;;;42.42;20.48;;;2.70;99.90;;;;;;5044422;28;20508;-64
2020/12/19 07:09:32;;;;;;;41.67;19.38;;;2.70;99.90;;;;;;5078727;22;20483;-66
2020/12/19 07:11:58;;;;;;;38.33;20.95;;;2.80;99.90;;;;;;5079966;28;20031;-67
2020/12/19 07:14:24;;;;;;;41.25;19.25;;;2.80;99.90;;;;;;5073876;28;20024;-66
2020/12/19 07:16:52;;;;;;;40.60;20.15;;;2.80;99.90;;;;;;5082764;28;20069;-65
2020/12/19 07:19:26;;;;;;;39.63;21.23;;;2.80;99.90;;;;;;5084375;28;20028;-68
2020/12/19 07:21:57;;;;;;;42.08;21.20;;;3.00;99.90;;;;;;5071455;28;20028;-64
2020/12/19 07:24:24;;;;;;;41.25;20.63;;;3.40;99.90;;;;;;5053899;28;20111;-67
2020/12/19 07:26:52;;;;;;;44.90;22.87;;;3.80;99.90;;;;;;5072034;28;20028;-68
2020/12/19 07:29:22;;;;;;;43.95;22.45;;;4.10;99.90;;;;;;5069831;28;20028;-67
2020/12/19 07:31:54;;;;;;;40.47;20.67;;;4.10;99.90;;;;;;5059385;28;20032;-67
2020/12/19 07:34:21;;;;;;;40.42;21.35;;;4.00;99.90;;;;;;5053561;28;20518;-67
2020/12/19 07:36:48;;;;;;;43.72;22.23;;;3.90;99.90;;;;;;5053863;28;20024;-67
2020/12/19 07:39:15;;;;;;;40.00;20.05;;;4.00;99.90;;;;;;5052898;28;20024;-67
2020/12/19 07:41:43;;;;;;;37.92;20.48;;;3.90;99.90;;;;;;5071681;28;20419;-66
2020/12/19 07:44:09;;;;;;;42.13;21.85;;;3.80;99.90;;;;;;5053722;28;20024;-66
2020/12/19 07:46:35;;;;;;;40.55;19.40;;;3.80;99.90;;;;;;5053537;28;20035;-67
2020/12/19 07:49:01;;;;;;;40.95;20.42;;;3.80;99.90;;;;;;5070557;28;20050;-66
2020/12/19 07:51:27;;;;;;;38.78;20.48;;;3.70;99.90;;;;;;5033375;28;20484;-68
2020/12/19 07:53:52;;;;;;;41.88;21.02;;;3.80;99.90;;;;;;5043825;28;20032;-66
2020/12/19 07:56:19;;;;;;;38.22;19.58;;;3.70;99.90;;;;;;5071166;28;20605;-66
2020/12/19 07:58:46;;;;;;;40.50;19.20;;;3.70;99.90;;;;;;5070431;28;20494;-65
2020/12/19 08:01:13;;;;;;;39.55;19.92;;;3.80;99.90;;;;;;5053255;28;20035;-66
2020/12/19 08:03:38;;;;;;;35.45;18.65;;;3.70;99.90;;;;;;5060063;28;20113;-68
2020/12/19 08:06:04;;;;;;;38.45;18.42;;;3.80;99.90;;;;;;5053451;28;20556;-66
2020/12/19 08:08:29;;;;;;;38.67;19.60;;;3.80;99.90;;;;;;5052439;28;20108;-66
2020/12/19 08:11:05;;;;;;;35.90;19.20;;;3.80;99.90;;;;;;5070506;28;20028;-67
2020/12/19 08:13:30;;;;;;;36.22;20.20;;;3.80;99.90;;;;;;5052969;28;20020;-66
2020/12/19 08:15:59;;;;;;;40.03;21.13;;;;;;;;;;5053205;28;20028;-64
2020/12/19 08:18:25;;;;;;;;;;;3.90;99.90;;;;;;5049239;28;20017;-66
2020/12/19 08:20:52;;;;;;;39.35;21.30;;;3.80;99.90;;;;;;5050676;28;19917;-67
2020/12/19 08:23:20;;;;;;;38.97;20.80;;;3.90;99.90;;;;;;5050559;28;20418;-67
2020/12/19 08:25:50;;;;;;;40.35;20.08;;;3.90;99.90;;;;;;5068261;28;20390;-66
2020/12/19 08:28:20;;;;;;;42.50;20.90;;;4.00;99.90;;;;;;5052887;28;20081;-67
2020/12/19 08:30:46;;;;;;;35.92;19.23;;;;;;;;;;5052331;28;20050;-64
2020/12/19 08:33:12;;;;;;;41.60;21.60;;;4.10;99.90;;;;;;5060190;28;20029;-67
2020/12/19 08:35:45;;;;;;;39.30;20.00;;;4.30;99.90;;;;;;5059447;28;20498;-67
2020/12/19 08:38:24;;;;;;;35.75;21.80;;;4.40;99.90;;;;;;5058819;28;20035;-69
2020/12/19 08:40:51;;;;;;;39.33;20.75;;;4.50;99.90;;;;;;5056183;28;20024;-67
2020/12/19 08:43:32;;;;;;;41.08;21.70;;;4.60;99.90;;;;;;5067873;28;20044;-67
2020/12/19 08:46:12;;;;;;;37.38;20.92;;;4.80;99.90;;;;;;5059015;28;20029;-68
2020/12/19 08:48:38;;;;;;;38.35;20.42;;;4.90;99.90;;;;;;5055707;28;20040;-66
2020/12/19 08:51:15;;;;;;;40.95;21.75;;;5.10;99.90;;;;;;5052243;28;20502;-66
2020/12/19 08:53:41;;;;;;;38.38;21.13;;;5.30;99.90;;;;;;5052222;28;20032;-66
2020/12/19 08:56:18;;;;;;;36.22;21.10;;;5.60;99.90;;;;;;5054179;28;20223;-67
2020/12/19 08:58:52;;;;;;;34.22;18.92;;;5.70;99.90;;;;;;5068416;28;20496;-64
2020/12/19 09:01:18;;;;;;;35.20;19.13;;;5.80;99.90;;;;;;5062326;28;20028;-66
2020/12/19 09:03:44;;;;;;;34.90;19.25;;;5.90;99.90;;;;;;5052124;28;20032;-65
2020/12/19 09:06:12;;;;;;;37.65;19.83;;;6.00;99.90;;;;;;5070034;28;20071;-65
2020/12/19 09:08:38;;;;;;;33.97;20.85;;;6.10;99.90;;;;;;5051566;28;20048;-64
2020/12/19 09:11:05;;;;;;;34.65;19.85;;;6.20;99.90;;;;;;5058687;28;20063;-61
2020/12/19 09:13:32;;;;;;;36.20;19.55;;;6.30;99.90;;;;;;5051916;28;20074;-65
2020/12/19 09:16:05;;;;;;;35.75;20.05;;;6.40;99.90;;;;;;5052218;28;20048;-64
2020/12/19 09:18:33;;;;;;;32.33;19.15;;;6.50;99.90;;;;;;5058382;28;20096;-61
2020/12/19 09:21:01;;;;;;;32.53;18.42;;;6.60;99.90;;;;;;5049943;28;20028;-63
2020/12/19 09:23:28;;;;;;;36.05;18.75;;;6.70;99.90;;;;;;5050270;28;20094;-64
2020/12/19 09:25:57;;;;;;;31.48;17.25;;;6.80;99.90;;;;;;5060950;28;20033;-63
2020/12/19 09:28:23;;;;;;;32.78;18.70;;;6.90;99.90;;;;;;5069695;28;20040;-64
2020/12/19 09:30:51;;;;;;;32.97;18.02;;;7.00;99.90;;;;;;5061510;28;20083;-62
2020/12/19 09:33:16;;;;;;;35.17;19.42;;;7.20;99.90;;;;;;5062742;28;20071;-61
2020/12/19 09:35:42;;;;;;;28.95;18.35;;;7.30;99.90;;;;;;5068592;28;20115;-63
2020/12/19 09:38:08;;;;;;;31.13;17.52;;;7.30;99.90;;;;;;5068611;28;20020;-64
2020/12/19 09:40:34;;;;;;;30.55;17.75;;;7.40;99.90;;;;;;5068177;28;20111;-62
2020/12/19 09:42:59;;;;;;;32.08;18.77;;;7.50;99.90;;;;;;5059389;28;20028;-62
2020/12/19 09:45:26;;;;;;;34.00;18.30;;;7.60;99.90;;;;;;5069771;28;20032;-56
2020/12/19 09:47:53;;;;;;;30.90;17.95;;;7.60;99.90;;;;;;5069614;28;20025;-54
2020/12/19 09:50:20;;;;;;;28.45;16.92;;;7.60;99.90;;;;;;5059667;28;20111;-55
2020/12/19 09:52:45;;;;;;;28.55;17.35;;;7.60;99.90;;;;;;5057732;28;20186;-52
2020/12/19 09:55:11;;;;;;;30.80;17.15;;;7.80;99.90;;;;;;5052105;28;20535;-58
2020/12/19 09:57:36;;;;;;;29.77;17.27;;;7.90;99.90;;;;;;5051673;28;20032;-55
2020/12/19 10:00:07;;;;;;;27.80;16.90;;;8.10;99.90;;;;;;5069176;28;20025;-57
2020/12/19 10:02:33;;;;;;;30.58;17.60;;;8.10;99.90;;;;;;5052007;28;20118;-52
2020/12/19 10:04:59;;;;;;;28.48;17.25;;;8.20;99.90;;;;;;5068422;28;20499;-55
2020/12/19 10:07:25;;;;;;;28.58;16.27;;;8.30;99.90;;;;;;5068332;28;20024;-54
2020/12/19 10:09:51;;;;;;;26.92;16.35;;;8.50;99.90;;;;;;5066492;28;20523;-55
2020/12/19 10:12:17;;;;;;;26.20;16.15;;;8.50;99.90;;;;;;5067732;28;20040;-58
2020/12/19 10:14:43;;;;;;;27.90;16.05;;;8.60;99.90;;;;;;5070574;28;20099;-54
2020/12/19 10:17:08;;;;;;;30.65;16.27;;;8.60;99.90;;;;;;5070380;28;20111;-56
2020/12/19 10:19:34;;;;;;;26.17;15.57;;;8.70;99.90;;;;;;5035333;28;20476;-57
2020/12/19 10:21:59;;;;;;;28.25;16.77;;;8.70;99.90;;;;;;5035570;28;20096;-54
2020/12/19 10:24:29;;;;;;;28.65;15.55;;;8.80;99.90;;;;;;5035037;28;20025;-58
2020/12/19 10:26:55;;;;;;;28.02;16.42;;;9.00;99.90;;;;;;5035240;28;20029;-52
2020/12/19 10:29:21;;;;;;;23.50;12.73;;;9.10;99.90;;;;;;5034164;28;20082;-56
2020/12/19 10:31:47;;;;;;;26.40;14.95;;;9.30;99.90;;;;;;5034995;28;20455;-56
2020/12/19 10:34:13;;;;;;;24.67;12.70;;;9.40;99.90;;;;;;5034861;28;20029;-54
2020/12/19 10:36:38;;;;;;;26.00;13.98;;;9.50;99.90;;;;;;5034615;28;20388;-56
2020/12/19 10:39:04;;;;;;;24.88;14.80;;;9.50;99.90;;;;;;5033961;28;20052;-54
2020/12/19 10:41:32;;;;;;;24.73;14.15;;;9.70;99.90;;;;;;5034578;28;20039;-53
2020/12/19 10:43:58;;;;;;;23.33;13.17;;;9.80;99.90;;;;;;5034560;28;20404;-58
2020/12/19 10:46:28;;;;;;;24.65;13.23;;;9.90;99.90;;;;;;5034747;28;20043;-53
2020/12/19 10:48:54;;;;;;;24.00;13.70;;;10.10;99.90;;;;;;5034023;28;20029;-54
2020/12/19 10:51:27;;;;;;;20.73;11.52;;;10.80;99.90;;;;;;5034509;28;20076;-57
2020/12/19 10:53:54;;;;;;;22.13;12.82;;;11.60;99.90;;;;;;5034551;28;20400;-56
2020/12/19 10:56:20;;;;;;;22.58;12.85;;;12.10;99.90;;;;;;5034475;28;20029;-57
2020/12/19 10:58:46;;;;;;;24.00;13.90;;;12.80;99.90;;;;;;5033763;28;20472;-56
2020/12/19 11:01:12;;;;;;;20.58;12.35;;;13.00;99.90;;;;;;5052692;28;20021;-52
2020/12/19 11:03:37;;;;;;;21.70;12.98;;;13.20;99.90;;;;;;5034157;28;20025;-50
2020/12/19 11:06:03;;;;;;;22.23;13.68;;;13.70;99.90;;;;;;5034002;28;20106;-50
2020/12/19 11:08:29;;;;;;;19.45;11.90;;;14.10;99.90;;;;;;5033492;28;20091;-56
2020/12/19 11:10:55;;;;;;;19.83;11.85;;;14.30;99.90;;;;;;5051864;28;20037;-55
2020/12/19 11:13:21;;;;;;;20.63;13.02;;;14.20;99.90;;;;;;5051787;28;20033;-51
2020/12/19 11:15:47;;;;;;;22.10;12.65;;;14.30;99.90;;;;;;5034269;28;20033;-51
2020/12/19 11:18:13;;;;;;;21.45;11.70;;;14.50;99.90;;;;;;5034024;28;20082;-54
2020/12/19 11:20:38;;;;;;;21.25;11.40;;;14.40;99.90;;;;;;5033850;28;20450;-55
2020/12/19 11:23:04;;;;;;;17.50;11.00;;;14.50;99.90;;;;;;5034173;28;20033;-56
2020/12/19 11:25:30;;;;;;;20.75;11.73;;;14.80;99.90;;;;;;5034471;28;20087;-51
2020/12/19 11:27:55;;;;;;;18.85;12.05;;;15.60;99.90;;;;;;5033630;28;20111;-54
2020/12/19 11:30:21;;;;;;;19.30;11.77;;;16.30;99.90;;;;;;5033321;28;20078;-53
2020/12/19 11:32:46;;;;;;;17.85;11.15;;;16.30;99.90;;;;;;5033820;28;20075;-53
2020/12/19 11:35:12;;;;;;;17.92;11.13;;;16.10;99.90;;;;;;5033730;28;20032;-53
2020/12/19 11:37:38;;;;;;;18.42;11.30;;;15.70;99.90;;;;;;5033446;28;20079;-50
2020/12/19 11:40:04;;;;;;;21.80;12.32;;;15.60;99.90;;;;;;5016966;28;20026;-53
2020/12/19 11:42:30;;;;;;;18.42;11.60;;;15.90;99.90;;;;;;5033443;28;20083;-56
2020/12/19 11:44:56;;;;;;;22.58;12.20;;;16.20;99.90;;;;;;5033652;28;20024;-53
2020/12/19 11:47:22;;;;;;;17.63;11.68;;;16.40;99.90;;;;;;5051746;28;20033;-56
2020/12/19 11:49:48;;;;;;;19.10;12.75;;;16.80;99.90;;;;;;5033015;28;20029;-54
2020/12/19 11:52:13;;;;;;;17.80;12.00;;;17.00;99.90;;;;;;5033651;28;20036;-55
2020/12/19 11:54:39;;;;;;;18.63;11.90;;;16.70;99.90;;;;;;5051447;28;20159;-57
2020/12/19 11:57:06;;;;;;;17.90;10.85;;;16.50;99.90;;;;;;5050809;28;20028;-57
2020/12/19 11:59:32;;;;;;;17.25;10.65;;;16.40;99.90;;;;;;5050678;28;20071;-54
2020/12/19 12:02:02;;;;;;;19.10;11.13;;;16.20;99.90;;;;;;5060877;28;20036;-51
2020/12/19 12:04:29;;;;;;;18.35;10.77;;;16.20;99.90;;;;;;5068132;28;20024;-55
2020/12/19 12:06:55;;;;;;;24.70;12.20;;;16.60;99.90;;;;;;4713036;28;10000435;-57
2020/12/19 12:09:21;;;;;;;18.02;11.95;;;17.00;99.90;;;;;;5061581;28;20072;-59
2020/12/19 12:11:46;;;;;;;16.95;11.07;;;16.90;99.90;;;;;;5067497;28;20043;-58
2020/12/19 12:14:12;;;;;;;18.13;10.73;;;16.50;99.90;;;;;;5057624;28;20079;-57
2020/12/19 12:16:38;;;;;;;19.13;10.88;;;16.20;99.90;;;;;;5047725;28;20021;-57
2020/12/19 12:19:04;;;;;;;19.35;11.23;;;15.90;99.90;;;;;;5061944;28;20028;-57
2020/12/19 12:21:40;;;;;;;18.90;11.07;;;16.20;99.90;;;;;;5067475;28;20435;-57
2020/12/19 12:24:06;;;;;;;19.73;10.77;;;16.80;99.90;;;;;;5047911;28;20033;-57
2020/12/19 12:26:33;;;;;;;17.38;10.75;;;16.60;99.90;;;;;;5047487;28;20024;-56
2020/12/19 12:29:00;;;;;;;17.63;11.32;;;16.50;99.90;;;;;;5043708;28;20063;-56
2020/12/19 12:31:32;;;;;;;17.15;10.45;;;16.50;99.90;;;;;;5046638;28;20063;-58
2020/12/19 12:33:58;;;;;;;17.30;9.88;;;16.40;99.90;;;;;;5047360;28;20033;-58
2020/12/19 12:36:25;;;;;;;17.77;10.23;;;16.10;99.90;;;;;;5052184;28;20021;-53